Time;durP1;ratioP1;P1;durP2;ratioP2;P2;SDS_P1;SDS_P2;PMS_P1;PMS_P2;Temp;Humidity;BMP_temperature;BMP_pressure;BME280_temperature;BME280_humidity;BME280_pressure;Samples;Min_cycle;Max_cycle;Signal;HPM_P1;HPM_P2
2022/06/19 00:01:00;;;;;;;16.27;3.47;;;;;;;13.22;58.85;100094.78;5103302;28;20027;-72
2022/06/19 00:03:40;;;;;;;19.10;2.83;;;;;;;13.12;59.05;100086.31;5103173;28;20028;-73
2022/06/19 00:06:05;;;;;;;23.65;3.80;;;;;;;13.12;59.12;100079.38;5103240;28;20028;-73
2022/06/19 00:08:31;;;;;;;17.23;2.45;;;;;;;13.08;59.26;100075.09;5102722;28;20020;-73
2022/06/19 00:10:57;;;;;;;12.20;3.65;;;;;;;13.09;59.49;100065.53;5103388;28;20074;-73
2022/06/19 00:13:23;;;;;;;23.40;3.05;;;;;;;13.15;59.18;100075.81;5084831;28;20042;-73
2022/06/19 00:15:48;;;;;;;21.42;3.05;;;;;;;12.99;59.02;100054.47;5103129;28;20024;-73
2022/06/19 00:18:14;;;;;;;13.52;3.28;;;;;;;13.20;59.41;100099.16;5103211;28;20024;-72
2022/06/19 00:20:39;;;;;;;13.60;2.75;;;;;;;13.17;59.36;100097.50;5103311;28;20062;-72
2022/06/19 00:23:05;;;;;;;21.70;3.55;;;;;;;13.22;59.23;100108.69;5103073;28;20048;-73
2022/06/19 00:25:31;;;;;;;18.55;3.88;;;;;;;13.04;59.16;100083.03;5103111;28;20107;-75
2022/06/19 00:27:56;;;;;;;12.80;2.78;;;;;;;12.98;59.13;100071.03;5103108;28;20028;-73
2022/06/19 00:30:22;;;;;;;18.85;3.53;;;;;;;13.13;59.27;100103.69;5102949;28;20028;-70
2022/06/19 00:32:47;;;;;;;10.80;2.63;;;;;;;13.00;59.23;100082.28;5102900;28;20028;-68
2022/06/19 00:35:13;;;;;;;14.70;2.70;;;;;;;12.89;59.40;100072.94;5084388;28;20020;-68
2022/06/19 00:37:38;;;;;;;17.45;2.85;;;;;;;13.05;59.63;100090.81;5102568;28;20178;-68
2022/06/19 00:40:07;;;;;;;16.52;3.15;;;;;;;13.07;59.73;100093.38;5103112;28;20042;-67
2022/06/19 00:42:32;;;;;;;18.33;3.33;;;;;;;12.97;59.82;100079.75;5102525;28;20028;-68
2022/06/19 00:44:57;;;;;;;18.98;3.50;;;;;;;13.12;60.00;100108.03;5102854;28;20055;-68
2022/06/19 00:47:26;;;;;;;13.55;3.53;;;;;;;13.12;60.19;100096.75;5102778;28;20055;-68
2022/06/19 00:49:54;;;;;;;16.02;2.30;;;;;;;13.14;60.32;100108.88;5102678;28;20039;-67
2022/06/19 00:52:24;;;;;;;18.40;2.78;;;;;;;13.13;60.33;100108.91;5102481;28;20078;-68
2022/06/19 00:55:03;;;;;;;15.02;2.78;;;;;;;13.11;60.56;100101.13;5102775;28;20028;-68
2022/06/19 00:57:33;;;;;;;12.55;3.20;;;;;;;12.94;60.46;100092.84;5084390;28;20035;-68
2022/06/19 01:00:11;;;;;;;16.42;2.92;;;;;;;13.05;60.42;100106.44;5104406;28;20044;-68
2022/06/19 01:02:41;;;;;;;15.77;2.40;;;;;;;13.05;60.35;100095.19;5105945;28;20039;-68
2022/06/19 01:05:10;;;;;;;11.80;2.78;;;;;;;13.05;60.21;100101.25;5106500;28;20108;-68
2022/06/19 01:07:36;;;;;;;18.00;2.72;;;;;;;13.06;60.17;100095.16;5106433;28;20021;-68
2022/06/19 01:10:02;;;;;;;13.90;2.60;;;;;;;13.07;60.24;100109.88;5106461;28;20068;-67
2022/06/19 01:12:31;;;;;;;17.08;2.63;;;;;;;13.12;60.31;100110.66;5106239;28;20020;-68
2022/06/19 01:15:02;;;;;;;17.08;2.60;;;;;;;13.07;60.10;100094.25;5106262;28;20016;-68
2022/06/19 01:17:33;;;;;;;12.93;3.10;;;;;;;13.10;60.29;100102.00;5106069;28;20024;-68
2022/06/19 01:20:02;;;;;;;24.25;2.83;;;;;;;13.13;60.34;100099.31;5106382;28;20031;-68
2022/06/19 01:22:39;;;;;;;13.95;3.35;;;;;;;13.13;60.73;100104.53;5105984;28;20016;-68
2022/06/19 01:25:14;;;;;;;14.63;3.20;;;;;;;13.17;60.59;100107.94;5106079;28;20023;-68
2022/06/19 01:30:37;;;;;;;19.75;2.72;;;;;;;13.11;60.92;100082.00;5105995;28;20051;-68
2022/06/19 01:33:07;;;;;;;16.05;2.92;;;;;;;13.13;61.07;100083.69;5105721;28;20024;-68
2022/06/19 01:35:35;;;;;;;13.23;2.95;;;;;;;13.13;61.04;100086.28;5106306;28;20028;-67
2022/06/19 01:38:22;;;;;;;13.10;2.95;;;;;;;13.16;61.04;100066.25;5105472;28;20020;-67
2022/06/19 01:40:52;;;;;;;17.08;3.00;;;;;;;13.16;61.02;100074.06;5105713;28;20028;-67
2022/06/19 01:43:19;;;;;;;12.40;3.28;;;;;;;13.12;61.25;100070.69;5105454;28;20059;-68
2022/06/19 01:45:48;;;;;;;13.68;2.55;;;;;;;13.13;61.08;100067.22;5105524;28;20073;-67
2022/06/19 01:48:14;;;;;;;19.50;3.08;;;;;;;12.94;61.05;100038.13;5105455;28;20031;-68
2022/06/19 01:50:40;;;;;;;14.35;2.83;;;;;;;13.09;61.16;100063.81;5087371;28;20461;-69
2022/06/19 01:53:21;;;;;;;15.55;3.10;;;;;;;13.14;60.80;100054.13;5105401;28;20043;-68
2022/06/19 01:55:47;;;;;;;19.30;2.60;;;;;;;13.01;60.82;100021.44;5105383;28;20419;-68
2022/06/19 01:58:13;;;;;;;12.52;3.08;;;;;;;13.04;60.63;100016.16;5105236;28;20055;-67
2022/06/19 02:00:43;;;;;;;18.77;3.75;;;;;;;12.99;61.02;100013.66;5105137;28;20040;-68
2022/06/19 02:03:32;;;;;;;13.98;2.63;;;;;;;13.04;61.18;100025.72;5105360;28;20045;-67
2022/06/19 02:05:58;;;;;;;14.23;2.83;;;;;;;13.11;61.07;100029.88;5105435;28;20024;-68
2022/06/19 02:08:25;;;;;;;16.58;3.50;;;;;;;13.07;61.25;100021.28;5104914;28;20016;-67
2022/06/19 02:10:51;;;;;;;23.77;3.30;;;;;;;13.06;61.39;100019.59;5104831;28;20030;-68
2022/06/19 02:13:20;;;;;;;12.13;2.55;;;;;;;13.08;61.47;100017.78;5105300;28;20023;-66
2022/06/19 02:15:48;;;;;;;13.50;2.60;;;;;;;12.95;61.56;99990.31;5104953;28;20031;-67
2022/06/19 02:18:21;;;;;;;21.17;3.05;;;;;;;13.05;61.77;100006.59;5104940;28;20072;-66
2022/06/19 02:20:50;;;;;;;33.92;4.95;;;;;;;13.05;61.71;99997.00;5104977;28;20024;-66
2022/06/19 02:23:19;;;;;;;16.42;3.80;;;;;;;12.99;61.60;99992.81;5104509;28;20024;-66
2022/06/19 02:25:45;;;;;;;13.57;2.80;;;;;;;12.94;61.82;99999.88;5104875;28;20547;-66
2022/06/19 02:28:12;;;;;;;13.45;2.72;;;;;;;12.94;62.03;99993.84;5104554;28;20023;-67
2022/06/19 02:30:37;;;;;;;15.82;3.03;;;;;;;12.93;62.07;99987.75;5104543;28;20024;-66
2022/06/19 02:33:04;;;;;;;18.85;3.50;;;;;;;12.96;62.05;99989.41;5104568;28;20027;-66
2022/06/19 02:35:30;;;;;;;20.60;3.25;;;;;;;12.85;61.96;99969.72;5104603;28;20042;-66
2022/06/19 02:37:56;;;;;;;14.70;3.03;;;;;;;12.93;62.03;99979.94;5104391;28;20240;-66
2022/06/19 02:40:53;;;;;;;15.38;3.28;;;;;;;12.94;62.00;99955.59;5104552;28;20012;-66
2022/06/19 02:43:27;;;;;;;19.52;2.95;;;;;;;12.97;62.28;99960.72;5104283;28;20019;-66
2022/06/19 02:45:52;;;;;;;18.73;3.42;;;;;;;12.92;62.70;99973.03;5086128;28;20020;-67
2022/06/19 02:48:27;;;;;;;15.02;2.50;;;;;;;12.93;62.68;99966.06;5104421;28;20045;-66
2022/06/19 02:50:54;;;;;;;19.52;3.10;;;;;;;12.96;63.05;99965.97;5104312;28;20024;-67
2022/06/19 02:53:20;;;;;;;18.05;2.92;;;;;;;12.88;63.03;99954.00;5104100;28;20024;-67
2022/06/19 02:55:46;;;;;;;16.00;2.90;;;;;;;12.82;62.98;99937.66;5104260;28;20028;-67
2022/06/19 02:58:12;;;;;;;14.15;2.80;;;;;;;12.81;63.34;99949.00;5104056;28;20024;-66
2022/06/19 03:00:38;;;;;;;22.88;2.88;;;;;;;13.04;63.22;99984.88;5104041;28;20046;-66
2022/06/19 03:03:13;;;;;;;20.52;2.97;;;;;;;13.06;63.18;99992.66;5104043;28;20051;-67
2022/06/19 03:05:39;;;;;;;19.30;3.45;;;;;;;13.06;63.48;99998.72;5104337;28;20047;-67
2022/06/19 03:08:04;;;;;;;20.77;4.70;;;;;;;13.09;63.43;100003.88;5103886;28;20020;-66
2022/06/19 03:10:30;;;;;;;13.30;3.25;;;;;;;13.13;63.26;100007.25;5103903;28;20028;-67
2022/06/19 03:12:58;;;;;;;16.23;2.97;;;;;;;13.13;63.11;100010.69;5103904;28;20083;-67
2022/06/19 03:15:23;;;;;;;18.33;3.42;;;;;;;13.12;63.31;100011.59;5103824;28;20507;-67
2022/06/19 03:17:49;;;;;;;21.02;3.17;;;;;;;13.16;63.47;100014.13;5104023;28;20024;-67
2022/06/19 03:20:17;;;;;;;14.68;3.05;;;;;;;13.21;63.24;100017.50;5103848;28;20023;-67
2022/06/19 03:22:43;;;;;;;13.07;2.50;;;;;;;13.19;63.39;100008.84;5102894;28;20048;-67
2022/06/19 03:25:09;;;;;;;23.67;3.25;;;;;;;13.20;63.04;100010.53;5085656;28;20062;-67
2022/06/19 03:27:34;;;;;;;20.08;2.97;;;;;;;13.18;62.96;100023.63;5103700;28;20065;-67
2022/06/19 03:29:59;;;;;;;19.15;2.75;;;;;;;13.18;62.80;100020.16;5103609;28;20024;-67
2022/06/19 03:32:25;;;;;;;17.42;2.42;;;;;;;13.22;62.26;100020.06;5103773;28;20083;-66
2022/06/19 03:34:50;;;;;;;11.27;2.15;;;;;;;13.19;61.97;100019.25;5103484;28;20039;-66
2022/06/19 03:37:15;;;;;;;12.35;2.42;;;;;;;12.98;62.37;99985.03;5103431;28;20055;-67
2022/06/19 03:39:41;;;;;;;12.15;2.85;;;;;;;13.14;62.08;100008.97;5103429;28;20013;-67
2022/06/19 03:42:07;;;;;;;19.95;3.55;;;;;;;13.25;62.16;100024.31;5085161;28;20476;-66
2022/06/19 03:44:33;;;;;;;15.60;2.85;;;;;;;13.25;61.97;100019.97;5103391;28;20016;-67
2022/06/19 03:46:58;;;;;;;13.50;3.42;;;;;;;13.27;62.19;100018.16;5103622;28;20020;-67
2022/06/19 03:49:24;;;;;;;12.73;2.83;;;;;;;13.23;61.39;99995.69;5103402;28;20436;-66
2022/06/19 03:51:49;;;;;;;18.88;2.85;;;;;;;13.32;61.51;100001.56;5103571;28;20349;-67
2022/06/19 03:54:15;;;;;;;12.48;2.30;;;;;;;13.39;61.22;100000.50;5102945;28;20468;-67
2022/06/19 03:56:40;;;;;;;11.65;2.55;;;;;;;13.42;61.28;100012.59;5103285;28;20019;-66
2022/06/19 03:59:07;;;;;;;16.00;3.40;;;;;;;13.48;60.95;100007.22;5103018;28;20036;-68
2022/06/19 04:01:38;;;;;;;13.50;2.55;;;;;;;13.62;60.58;99999.06;5103253;28;20027;-67
2022/06/19 04:04:04;;;;;;;11.80;2.90;;;;;;;13.70;60.58;99996.22;5103004;28;20092;-67
2022/06/19 04:06:33;;;;;;;15.30;2.53;;;;;;;13.84;60.35;99993.22;5103090;28;20032;-67
2022/06/19 04:08:59;;;;;;;16.88;3.40;;;;;;;13.95;59.49;100006.81;5102709;28;20457;-68
2022/06/19 04:11:27;;;;;;;15.45;2.60;;;;;;;14.05;59.41;99993.50;5103056;28;20032;-67
2022/06/19 04:13:53;;;;;;;9.30;2.13;;;;;;;14.26;58.24;100007.66;5102884;28;20090;-67
2022/06/19 04:16:24;;;;;;;7.85;2.45;;;;;;;14.32;58.02;100001.38;5103041;28;20026;-67
2022/06/19 04:18:51;;;;;;;9.63;2.22;;;;;;;14.42;57.56;99978.47;5103068;28;20028;-66
2022/06/19 04:21:20;;;;;;;13.10;2.65;;;;;;;14.46;57.23;99972.22;5103153;28;20109;-70
2022/06/19 04:23:46;;;;;;;17.27;2.75;;;;;;;14.52;57.35;99966.81;5102576;28;20023;-67
2022/06/19 04:26:15;;;;;;;11.25;2.10;;;;;;;14.59;56.97;99977.91;5102952;28;20028;-67
2022/06/19 04:28:41;;;;;;;13.15;3.42;;;;;;;14.70;56.42;99983.66;5103014;28;20110;-67
2022/06/19 04:31:07;;;;;;;11.00;2.05;;;;;;;14.66;55.84;99978.59;5103118;28;20219;-68
2022/06/19 04:33:38;;;;;;;15.40;2.60;;;;;;;14.50;56.12;99974.69;5104125;28;20061;-68
2022/06/19 04:36:05;;;;;;;8.77;1.70;;;;;;;14.32;56.47;99970.06;5106829;28;20024;-68
2022/06/19 04:38:31;;;;;;;12.98;2.05;;;;;;;14.32;56.92;99965.69;5106661;28;20426;-66
2022/06/19 04:40:56;;;;;;;14.80;2.20;;;;;;;14.31;56.74;99961.41;5106810;28;20057;-66
2022/06/19 04:43:22;;;;;;;11.77;3.28;;;;;;;14.30;56.64;99962.28;5106621;28;20031;-66
2022/06/19 04:45:48;;;;;;;11.38;2.47;;;;;;;14.27;56.95;99954.53;5106716;28;20161;-66
2022/06/19 04:48:13;;;;;;;10.13;2.42;;;;;;;14.19;56.75;99941.72;5106568;28;20028;-66
2022/06/19 04:50:39;;;;;;;9.55;2.08;;;;;;;14.29;56.87;99939.69;5106600;28;20021;-67
2022/06/19 04:53:05;;;;;;;12.70;2.10;;;;;;;14.24;57.16;99941.59;5106391;28;20031;-67
2022/06/19 04:55:31;;;;;;;11.80;2.33;;;;;;;14.09;57.11;99909.00;5106712;28;20035;-67
2022/06/19 04:58:03;;;;;;;11.52;2.40;;;;;;;14.31;57.23;99944.84;5106474;28;20028;-67
2022/06/19 05:00:29;;;;;;;13.45;2.40;;;;;;;14.35;57.28;99952.53;5106319;28;20043;-67
2022/06/19 05:02:55;;;;;;;11.88;2.20;;;;;;;14.36;57.14;99941.19;5106225;28;20115;-67
2022/06/19 05:05:21;;;;;;;12.20;2.45;;;;;;;14.44;57.24;99937.50;5106423;28;20035;-66
2022/06/19 05:07:47;;;;;;;15.32;2.03;;;;;;;14.43;57.18;99917.47;5106089;28;20028;-66
2022/06/19 05:10:14;;;;;;;11.15;3.08;;;;;;;14.52;57.50;99929.41;5088045;28;20027;-67
2022/06/19 05:12:39;;;;;;;10.07;1.85;;;;;;;14.53;57.42;99925.88;5106279;28;20103;-68
2022/06/19 05:15:06;;;;;;;9.57;1.83;;;;;;;14.64;57.15;99929.00;5106201;28;20506;-67
2022/06/19 05:17:32;;;;;;;10.68;2.30;;;;;;;14.70;56.85;99946.22;5087869;28;20042;-67
2022/06/19 05:19:58;;;;;;;11.27;2.38;;;;;;;14.66;56.65;99939.41;5106235;28;20297;-67
2022/06/19 05:22:23;;;;;;;11.82;2.83;;;;;;;14.64;56.83;99949.91;5106236;28;20224;-67
2022/06/19 05:24:48;;;;;;;14.38;3.00;;;;;;;14.66;56.72;99952.47;5105946;28;20020;-67
2022/06/19 05:27:14;;;;;;;9.18;1.73;;;;;;;14.71;56.84;99961.00;5106282;28;20031;-67
2022/06/19 05:29:39;;;;;;;10.75;2.35;;;;;;;14.80;56.82;99963.34;5087795;28;20043;-67
2022/06/19 05:32:06;;;;;;;7.45;2.28;;;;;;;14.82;56.40;99958.94;5105930;28;20027;-67
2022/06/19 05:34:36;;;;;;;8.77;2.28;;;;;;;14.91;56.38;99959.50;5105935;28;20024;-67
2022/06/19 05:37:03;;;;;;;26.55;3.97;;;;;;;14.93;56.57;99958.56;5106024;28;20070;-68
2022/06/19 05:39:29;;;;;;;9.85;2.05;;;;;;;14.97;56.63;99960.16;5105440;28;20024;-68
2022/06/19 05:41:57;;;;;;;13.13;2.58;;;;;;;15.04;56.14;99965.19;5105779;28;20032;-68
2022/06/19 05:44:24;;;;;;;8.88;2.30;;;;;;;15.10;55.83;99964.97;5105694;28;20027;-68
2022/06/19 05:46:50;;;;;;;15.73;2.30;;;;;;;15.14;55.69;99973.56;5104947;28;20028;-67
2022/06/19 05:49:15;;;;;;;9.75;2.30;;;;;;;15.13;55.42;99966.63;5105684;28;20083;-67
2022/06/19 05:51:41;;;;;;;14.45;2.20;;;;;;;15.12;55.24;99955.31;5105567;28;20031;-66
2022/06/19 05:54:07;;;;;;;11.35;2.28;;;;;;;15.30;54.77;99974.75;5105281;28;20169;-68
2022/06/19 05:56:32;;;;;;;9.52;2.30;;;;;;;15.39;54.67;99976.16;5105623;28;20080;-68
2022/06/19 05:58:58;;;;;;;13.43;2.45;;;;;;;15.46;54.71;99980.25;5105273;28;20044;-68
2022/06/19 06:01:25;;;;;;;13.25;3.95;;;;;;;15.58;54.38;99968.50;5105521;28;20418;-68
2022/06/19 06:03:50;;;;;;;11.38;2.25;;;;;;;15.79;53.84;99967.78;5105132;28;20054;-67
2022/06/19 06:06:22;;;;;;;11.52;2.03;;;;;;;15.76;53.55;99971.38;5105464;28;20019;-67
2022/06/19 06:08:49;;;;;;;15.00;2.65;;;;;;;15.88;52.93;99990.97;5086682;28;20051;-67
2022/06/19 06:11:15;;;;;;;11.20;1.83;;;;;;;15.74;52.40;99981.91;5105207;28;20024;-67
2022/06/19 06:13:40;;;;;;;11.05;2.30;;;;;;;15.65;52.89;99978.75;5105061;28;20020;-67
2022/06/19 06:16:06;;;;;;;13.65;2.10;;;;;;;15.62;52.63;99977.13;5105045;28;20029;-67
2022/06/19 06:18:32;;;;;;;14.90;2.95;;;;;;;15.55;52.21;99981.72;5104885;28;20031;-69
2022/06/19 06:21:04;;;;;;;8.60;2.03;;;;;;;15.53;52.58;99975.66;5104919;28;20067;-67
2022/06/19 06:23:30;;;;;;;9.05;2.10;;;;;;;15.63;52.85;99970.97;5104689;28;20031;-67
2022/06/19 06:26:03;;;;;;;11.38;2.05;;;;;;;15.86;52.96;99969.25;5104903;28;20070;-68
2022/06/19 06:28:30;;;;;;;9.63;1.98;;;;;;;16.00;52.80;99966.16;5104957;28;20353;-67
2022/06/19 06:30:55;;;;;;;12.35;2.13;;;;;;;16.00;52.83;99955.69;5105102;28;20074;-68
2022/06/19 06:33:21;;;;;;;10.20;1.88;;;;;;;16.13;51.93;99963.06;5104543;28;20042;-68
2022/06/19 06:35:47;;;;;;;11.93;2.45;;;;;;;16.18;51.92;99967.19;5104665;28;20030;-68
2022/06/19 06:38:12;;;;;;;9.88;2.08;;;;;;;16.32;52.09;99978.91;5104179;28;20030;-67
2022/06/19 06:40:37;;;;;;;14.48;3.08;;;;;;;16.46;51.53;99978.34;5104634;28;20016;-68
2022/06/19 06:43:03;;;;;;;9.70;2.20;;;;;;;16.52;50.90;99980.72;5086121;28;20087;-68
2022/06/19 06:45:28;;;;;;;9.93;2.20;;;;;;;16.49;50.94;99975.59;5104328;28;20035;-68
2022/06/19 06:47:53;;;;;;;8.85;2.08;;;;;;;16.57;50.54;99988.38;5104636;28;20016;-68
2022/06/19 06:50:19;;;;;;;7.97;2.33;;;;;;;16.64;50.25;99984.63;5104204;28;20486;-68
2022/06/19 06:52:45;;;;;;;11.10;2.15;;;;;;;16.71;50.16;99975.59;5103926;28;20032;-68
2022/06/19 06:55:11;;;;;;;17.27;2.60;;;;;;;16.77;50.41;99969.25;5104179;28;20051;-68
2022/06/19 06:57:36;;;;;;;10.05;1.88;;;;;;;16.76;50.23;99983.25;5103009;28;20024;-68
2022/06/19 07:00:03;;;;;;;9.20;1.88;;;;;;;16.74;50.00;99985.09;5103904;28;20076;-68
2022/06/19 07:02:28;;;;;;;9.60;2.03;;;;;;;16.78;49.94;99968.31;5103994;28;20035;-67
2022/06/19 07:04:53;;;;;;;7.85;1.95;;;;;;;16.89;49.52;99980.13;5103862;28;20028;-68
2022/06/19 07:07:19;;;;;;;11.48;1.85;;;;;;;16.93;49.02;99973.84;5104001;28;20456;-69
2022/06/19 07:09:44;;;;;;;8.85;2.83;;;;;;;16.97;48.86;99975.41;5103651;28;20272;-68
2022/06/19 07:12:10;;;;;;;9.90;1.83;;;;;;;16.91;48.59;99959.94;5103871;28;20032;-67
2022/06/19 07:14:36;;;;;;;12.85;1.80;;;;;;;16.96;48.85;99963.22;5103563;28;20034;-68
2022/06/19 07:17:01;;;;;;;8.63;2.22;;;;;;;17.11;48.48;99963.53;5103932;28;20024;-68
2022/06/19 07:19:27;;;;;;;14.57;2.08;;;;;;;17.13;47.91;99961.66;5103797;28;20024;-68
2022/06/19 07:21:52;;;;;;;7.35;1.98;;;;;;;17.15;48.03;99972.97;5103748;28;20097;-67
2022/06/19 07:24:17;;;;;;;10.05;1.63;;;;;;;17.13;47.60;99985.28;5103530;28;20016;-69
2022/06/19 07:26:43;;;;;;;10.30;1.85;;;;;;;17.26;47.14;99988.22;5103683;28;20024;-68
2022/06/19 07:29:08;;;;;;;11.80;2.00;;;;;;;17.48;46.61;99977.66;5103585;28;20032;-69
2022/06/19 07:31:35;;;;;;;8.13;1.85;;;;;;;17.56;45.83;99957.16;5103895;28;20035;-68
2022/06/19 07:34:00;;;;;;;7.65;1.60;;;;;;;18.06;45.99;99983.81;5103663;28;20030;-68
2022/06/19 07:36:26;;;;;;;11.57;1.73;;;;;;;18.41;46.04;99977.81;5103635;28;20051;-68
2022/06/19 07:38:51;;;;;;;8.68;2.28;;;;;;;18.51;44.77;99975.59;5103446;28;20028;-68
2022/06/19 07:41:17;;;;;;;11.00;1.70;;;;;;;18.41;43.78;99979.59;5103550;28;20024;-69
2022/06/19 07:43:46;;;;;;;10.35;1.95;;;;;;;18.50;44.13;99979.16;5103362;28;20035;-68
2022/06/19 07:46:12;;;;;;;8.52;1.90;;;;;;;18.75;43.91;99982.34;5103509;28;20031;-68
2022/06/19 07:51:24;;;;;;;8.75;1.73;;;;;;;20.55;42.12;99984.34;5103602;28;20420;-68
2022/06/19 07:53:50;;;;;;;13.13;2.38;;;;;;;21.57;40.63;99983.72;5084534;28;20254;-68
2022/06/19 07:56:15;;;;;;;6.68;1.60;;;;;;;22.60;39.13;99977.34;5103381;28;20455;-69
2022/06/19 07:58:40;;;;;;;7.90;1.77;;;;;;;23.61;37.35;99981.13;5103091;28;20043;-68
2022/06/19 08:01:06;;;;;;;8.50;1.73;;;;;;;24.38;34.84;99963.31;5103269;28;20059;-69
2022/06/19 08:03:31;;;;;;;6.90;1.52;;;;;;;24.87;34.49;99955.25;5103153;28;20031;-69
2022/06/19 08:05:56;;;;;;;7.78;1.52;;;;;;;25.29;33.01;99958.41;5103404;28;20066;-69
2022/06/19 08:08:25;;;;;;;5.75;1.50;;;;;;;25.64;31.78;99957.44;5103859;28;20028;-69
2022/06/19 08:10:53;;;;;;;9.05;1.70;;;;;;;26.13;30.93;99962.44;5107303;28;20071;-69
2022/06/19 08:13:26;;;;;;;8.90;1.95;;;;;;;26.86;31.00;99971.56;5107391;28;20020;-68
2022/06/19 08:15:55;;;;;;;5.93;1.35;;;;;;;27.05;29.19;99956.69;5107139;28;20468;-70
2022/06/19 08:18:20;;;;;;;9.27;1.75;;;;;;;26.29;28.17;99971.81;5106909;28;20028;-70
2022/06/19 08:20:47;;;;;;;7.20;1.65;;;;;;;25.52;28.52;99974.31;5107305;28;20031;-69
2022/06/19 08:23:13;;;;;;;5.53;1.48;;;;;;;25.62;29.27;99968.19;5107112;28;20039;-71
2022/06/19 08:25:39;;;;;;;6.63;1.20;;;;;;;26.09;28.67;99972.47;5107523;28;20087;-69
2022/06/19 08:28:05;;;;;;;4.30;1.20;;;;;;;26.08;28.49;99965.47;5107153;28;20066;-69
2022/06/19 08:30:45;;;;;;;8.00;1.73;;;;;;;26.30;28.12;99963.69;5107201;28;20021;-70
2022/06/19 08:33:11;;;;;;;5.63;1.30;;;;;;;25.77;27.63;99956.47;5106952;28;20028;-69
2022/06/19 08:35:44;;;;;;;8.50;1.60;;;;;;;25.40;28.09;99957.53;5106987;28;20012;-69
2022/06/19 08:38:18;;;;;;;8.93;1.25;;;;;;;24.78;28.67;99949.84;5106807;28;20056;-66
2022/06/19 08:41:08;;;;;;;9.48;2.33;;;;;;;23.76;29.94;99962.44;5106704;28;20388;-66
2022/06/19 08:43:51;;;;;;;8.18;1.48;;;;;;;22.84;31.14;99963.41;5106767;28;20076;-65
2022/06/19 08:46:33;;;;;;;7.53;1.63;;;;;;;22.12;31.50;99973.31;5106776;28;20028;-65
2022/06/19 08:49:36;;;;;;;10.40;2.15;;;;;;;21.32;33.17;99975.53;5106876;28;20048;-66
2022/06/19 08:52:04;;;;;;;6.30;1.48;;;;;;;20.75;34.20;99977.09;5106961;28;20070;-74
2022/06/19 08:54:39;;;;;;;5.68;1.67;;;;;;;20.15;34.28;99980.41;5106229;28;20107;-71
2022/06/19 08:57:13;;;;;;;12.68;1.90;;;;;;;19.75;35.43;99977.28;5106826;28;20094;-72
2022/06/19 08:59:49;;;;;;;8.60;2.03;;;;;;;19.46;36.18;99983.19;5106358;28;20043;-72
2022/06/19 09:02:42;;;;;;;11.65;1.95;;;;;;;19.15;36.82;99976.88;5106405;28;20077;-71
2022/06/19 09:05:44;;;;;;;7.20;1.50;;;;;;;18.94;36.65;99969.13;5106403;28;20035;-71
2022/06/19 09:08:15;;;;;;;;;;;;;;;18.72;37.13;99975.47;5106786;28;20016;-70
2022/06/19 09:10:52;;;;;;;8.43;1.58;;;;;;;18.80;36.95;99978.56;5106136;28;20379;-71
2022/06/19 09:13:17;;;;;;;8.75;1.70;;;;;;;18.78;37.26;99983.06;5087756;28;20215;-71
2022/06/19 09:16:01;;;;;;;10.23;2.00;;;;;;;18.65;37.55;99988.06;5106327;28;20154;-72
2022/06/19 09:18:48;;;;;;;5.20;1.40;;;;;;;18.47;37.99;99987.19;5106435;28;20028;-71
2022/06/19 09:21:20;;;;;;;6.55;1.42;;;;;;;18.31;38.07;99973.91;5105243;28;20034;-71
2022/06/19 09:24:04;;;;;;;5.63;1.73;;;;;;;18.39;38.41;99981.44;5087681;28;20439;-71
2022/06/19 09:26:40;;;;;;;5.25;1.63;;;;;;;18.66;37.95;99983.66;5105955;28;20044;-71
2022/06/19 09:29:21;;;;;;;7.47;1.50;;;;;;;19.00;36.79;99981.97;5105888;28;20116;-72
2022/06/19 09:32:16;;;;;;;7.25;1.70;;;;;;;19.39;36.62;99987.06;5105984;28;20061;-71
2022/06/19 09:34:54;;;;;;;6.65;1.90;;;;;;;19.96;35.45;99992.84;5103544;28;20040;-72
2022/06/19 09:37:28;;;;;;;7.40;1.80;;;;;;;20.55;35.67;99990.50;5105725;28;20020;-72
2022/06/19 09:39:59;;;;;;;6.78;1.50;;;;;;;21.18;33.55;99992.22;5105767;28;20020;-72
2022/06/19 09:42:35;;;;;;;6.93;1.02;;;;;;;21.38;32.73;99998.06;5106105;28;20020;-72
2022/06/19 09:45:07;;;;;;;7.80;1.50;;;;;;;21.48;33.97;99998.34;5105665;28;20024;-73
2022/06/19 09:47:50;;;;;;;7.97;1.65;;;;;;;21.50;34.13;100004.41;5105876;28;20532;-72
2022/06/19 09:50:49;;;;;;;12.18;2.22;;;;;;;21.61;34.21;100007.25;5105748;28;20043;-72
2022/06/19 09:53:26;;;;;;;8.80;1.65;;;;;;;21.62;34.63;100002.78;5087174;28;20020;-73
2022/06/19 09:55:58;;;;;;;9.65;1.95;;;;;;;21.65;35.08;99999.97;5105607;28;20049;-74
2022/06/19 09:58:33;;;;;;;3.60;1.13;;;;;;;21.89;34.58;99994.97;5105298;28;20043;-70
2022/06/19 10:01:02;;;;;;;6.68;1.60;;;;;;;22.34;34.52;100001.00;5105508;28;20110;-72
2022/06/19 10:04:13;;;;;;;8.65;1.75;;;;;;;22.95;33.67;99995.31;5105258;28;20393;-73
2022/06/19 10:06:43;;;;;;;6.20;1.55;;;;;;;23.66;32.01;99996.69;5022526;28;20138;-70
2022/06/19 10:09:35;;;;;;;8.05;2.30;;;;;;;24.13;32.12;99996.91;5022251;28;20121;-72
2022/06/19 10:12:04;;;;;;;9.20;2.08;;;;;;;24.84;31.29;99997.16;5022608;28;20081;-72
2022/06/19 10:14:42;;;;;;;7.28;1.70;;;;;;;25.49;30.09;99997.53;5022346;28;20516;-72
2022/06/19 10:17:27;;;;;;;7.05;1.70;;;;;;;25.68;29.80;100004.06;5022134;28;20033;-72
2022/06/19 10:20:16;;;;;;;8.40;1.50;;;;;;;25.94;29.52;100000.31;5022494;28;20494;-74
2022/06/19 10:23:09;;;;;;;9.38;1.52;;;;;;;26.52;27.88;99998.38;5022494;28;20088;-73
2022/06/19 10:25:37;;;;;;;6.93;1.75;;;;;;;26.94;27.10;99987.75;5022496;28;20034;-73
2022/06/19 10:28:27;;;;;;;7.20;1.80;;;;;;;26.28;27.46;100007.38;5022183;28;20033;-72
2022/06/19 10:31:08;;;;;;;13.85;2.08;;;;;;;24.82;29.29;100007.03;5021936;28;20042;-72
2022/06/19 10:33:54;;;;;;;6.55;2.15;;;;;;;23.74;30.93;100012.91;5022306;28;20070;-73
2022/06/19 10:36:25;;;;;;;5.47;2.00;;;;;;;22.90;32.01;100013.28;5025810;28;20104;-68
2022/06/19 10:39:00;;;;;;;5.70;1.60;;;;;;;22.16;32.91;100006.53;5104393;28;20062;-72
2022/06/19 10:42:06;;;;;;;8.90;1.80;;;;;;;21.54;33.85;99998.84;5104755;28;20028;-73
2022/06/19 10:44:58;;;;;;;7.60;1.50;;;;;;;21.79;34.70;100001.75;5104434;28;20077;-72
2022/06/19 10:47:58;;;;;;;8.35;2.63;;;;;;;22.68;33.94;99996.19;5084594;28;20035;-72
2022/06/19 10:50:45;;;;;;;8.23;2.15;;;;;;;23.39;32.93;99995.88;5077589;28;20047;-72
2022/06/19 10:53:20;;;;;;;10.95;2.30;;;;;;;24.02;31.30;99989.75;5104052;28;20464;-71
2022/06/19 10:56:01;;;;;;;10.98;2.47;;;;;;;23.99;30.89;99992.59;5103984;28;20027;-72
2022/06/19 10:58:31;;;;;;;6.57;1.77;;;;;;;23.99;31.29;99989.13;5104048;28;20020;-72
2022/06/19 11:01:01;;;;;;;8.40;1.60;;;;;;;23.94;31.68;99991.25;5086057;28;20031;-71
2022/06/19 11:07:00;;;;;;;9.13;1.85;;;;;;;23.07;32.91;100001.53;5104208;28;20035;-70
2022/06/19 11:09:54;;;;;;;10.52;2.47;;;;;;;23.04;33.24;99996.47;5103876;28;20487;-71
2022/06/19 11:12:42;;;;;;;7.70;2.15;;;;;;;22.74;33.56;99994.94;5101584;28;20122;-71
2022/06/19 11:15:29;;;;;;;12.23;2.00;;;;;;;22.20;34.71;99994.81;5103927;28;20107;-73
2022/06/19 11:18:18;;;;;;;11.55;2.08;;;;;;;22.12;35.09;99994.47;5103764;28;20031;-73
2022/06/19 11:21:00;;;;;;;7.05;1.70;;;;;;;21.88;35.33;100001.22;5104068;28;20019;-71
2022/06/19 11:23:39;;;;;;;8.88;1.75;;;;;;;21.52;35.07;100002.50;5103436;28;20044;-72
2022/06/19 11:26:13;;;;;;;15.60;2.55;;;;;;;21.16;35.59;99999.38;5103441;28;20027;-72
2022/06/19 11:28:45;;;;;;;8.40;2.20;;;;;;;20.78;36.48;99998.03;5103854;28;20016;-72
2022/06/19 11:31:32;;;;;;;8.73;1.70;;;;;;;20.51;37.65;99994.22;5103768;28;20056;-72
2022/06/19 11:34:01;;;;;;;13.82;1.75;;;;;;;20.20;37.28;99988.06;5103817;28;20020;-70
2022/06/19 11:36:39;;;;;;;10.70;2.03;;;;;;;19.87;37.77;99986.31;5103668;28;20028;-72
2022/06/19 11:39:37;;;;;;;7.13;1.80;;;;;;;19.68;38.00;99997.84;5103561;28;20039;-71
2022/06/19 11:42:23;;;;;;;7.63;2.17;;;;;;;19.41;37.72;99991.31;5103662;28;20028;-72
2022/06/19 11:44:52;;;;;;;10.55;2.42;;;;;;;19.19;38.39;99988.94;5084942;28;20043;-72
2022/06/19 11:47:23;;;;;;;10.35;2.10;;;;;;;18.99;38.63;99988.16;5103504;28;20024;-71
2022/06/19 11:49:50;;;;;;;10.35;2.28;;;;;;;18.72;38.59;99982.50;5103414;28;20028;-71
2022/06/19 11:52:24;;;;;;;9.38;2.22;;;;;;;18.48;38.97;99981.03;5103482;28;20034;-72